createdAt,value
2023-05-05T00:01:55.398Z,101498.72
2023-05-05T00:04:24.215Z,101504.09
2023-05-05T00:06:51.664Z,101501.41
2023-05-05T00:09:20.024Z,101499.59
2023-05-05T00:11:47.342Z,101496.03
2023-05-05T00:14:14.619Z,101491.66
2023-05-05T00:16:42.487Z,101495.19
2023-05-05T00:19:10.196Z,101496.16
2023-05-05T00:21:38.631Z,101493.47
2023-05-05T00:24:05.940Z,101499.72
2023-05-05T00:26:33.288Z,101495.28
2023-05-05T00:29:00.679Z,101492.59
2023-05-05T00:31:28.259Z,101494.34
2023-05-05T00:33:55.686Z,101485.38
2023-05-05T00:36:23.008Z,101487.22
2023-05-05T00:38:50.256Z,101492.59
2023-05-05T00:41:17.584Z,101488.06
2023-05-05T00:43:44.960Z,101475.59
2023-05-05T00:46:40.527Z,101485.53
2023-05-05T00:49:08.364Z,101483.69
2023-05-05T00:51:35.760Z,101471.22
2023-05-05T00:54:03.151Z,101480.13
2023-05-05T00:56:31.037Z,101484.66
2023-05-05T00:58:59.227Z,101482.81
2023-05-05T01:01:26.546Z,101474.91
2023-05-05T01:03:53.999Z,101475.75
2023-05-05T01:06:45.384Z,101470.47
2023-05-05T01:09:38.961Z,101472.31
2023-05-05T01:12:15.257Z,101473.91
2023-05-05T01:14:58.805Z,101472.22
2023-05-05T01:17:36.427Z,101467.78
2023-05-05T01:20:22.714Z,101466.06
2023-05-05T01:23:05.867Z,101465.22
2023-05-05T01:25:54.422Z,101458.00
2023-05-05T01:28:36.868Z,101452.63
2023-05-05T01:31:28.918Z,101456.16
2023-05-05T01:34:01.758Z,101458.84
2023-05-05T01:36:36.508Z,101457.16
2023-05-05T01:39:06.759Z,101457.16
2023-05-05T01:41:41.143Z,101462.53
2023-05-05T01:44:11.024Z,101451.78
2023-05-05T01:46:38.390Z,101454.47
2023-05-05T01:49:10.063Z,101452.75
2023-05-05T01:51:39.227Z,101451.78
2023-05-05T01:54:08.438Z,101452.75
2023-05-05T01:56:39.151Z,101449.09
2023-05-05T01:59:07.875Z,101450.06
2023-05-05T02:01:38.749Z,101437.63
2023-05-05T02:04:09.912Z,101442.00
2023-05-05T02:06:39.451Z,101446.41
2023-05-05T02:09:13.729Z,101445.53
2023-05-05T02:11:41.496Z,101451.78
2023-05-05T02:14:10.242Z,101449.09
2023-05-05T02:16:41.323Z,101457.16
2023-05-05T02:19:08.911Z,101457.16
2023-05-05T02:21:36.448Z,101452.63
2023-05-05T02:24:04.007Z,101456.31
2023-05-05T02:26:35.885Z,101457.16
2023-05-05T02:29:12.259Z,101455.44
2023-05-05T02:31:45.090Z,101455.44
2023-05-05T02:34:16.454Z,101454.59
2023-05-05T02:36:45.347Z,101458.25
2023-05-05T02:39:20.527Z,101459.13
2023-05-05T02:41:51.206Z,101458.25
2023-05-05T02:44:27.652Z,101464.50
2023-05-05T02:46:56.090Z,101457.41
2023-05-05T02:49:25.621Z,101461.94
2023-05-05T02:51:58.145Z,101452.03
2023-05-05T02:54:28.596Z,101457.41
2023-05-05T02:56:57.938Z,101462.78
2023-05-05T02:59:50.264Z,101454.72
2023-05-05T03:02:29.751Z,101453.00
2023-05-05T03:05:04.626Z,101448.63
2023-05-05T03:07:42.754Z,101455.69
2023-05-05T03:10:16.663Z,101453.00
2023-05-05T03:12:56.756Z,101444.09
2023-05-05T03:15:52.396Z,101457.53
2023-05-05T03:18:25.224Z,101451.31
2023-05-05T03:21:07.927Z,101454.00
2023-05-05T03:23:37.915Z,101449.59
2023-05-05T03:26:09.800Z,101445.06
2023-05-05T03:28:41.802Z,101441.53
2023-05-05T03:31:18.761Z,101442.38
2023-05-05T03:33:50.897Z,101437.00
2023-05-05T03:36:21.249Z,101429.03
2023-05-05T03:38:48.551Z,101434.41
2023-05-05T03:41:17.238Z,101429.03
2023-05-05T03:43:44.590Z,101437.97
2023-05-05T03:46:12.040Z,101428.19
2023-05-05T03:48:41.840Z,101433.56
2023-05-05T03:51:09.526Z,101432.72
2023-05-05T03:53:36.929Z,101435.41
2023-05-05T03:56:07.268Z,101432.72
2023-05-05T03:58:34.871Z,101436.41
2023-05-05T04:01:02.225Z,101434.41
2023-05-05T04:03:29.657Z,101431.88
2023-05-05T04:05:57.370Z,101431.88
2023-05-05T04:08:25.125Z,101431.88
2023-05-05T04:10:52.623Z,101433.69
2023-05-05T04:13:20.945Z,101423.06
2023-05-05T04:15:49.269Z,101431.00
2023-05-05T04:18:18.427Z,101431.00
2023-05-05T04:20:46.880Z,101428.31
2023-05-05T04:23:14.589Z,101438.22
2023-05-05T04:25:42.620Z,101440.94
2023-05-05T04:28:11.232Z,101436.41
2023-05-05T04:30:38.946Z,101440.94
2023-05-05T04:33:06.272Z,101437.38
2023-05-05T04:35:34.041Z,101436.50
2023-05-05T04:38:01.348Z,101443.72
2023-05-05T04:40:29.351Z,101451.69
2023-05-05T04:42:58.560Z,101451.78
2023-05-05T04:45:26.034Z,101448.13
2023-05-05T04:47:53.685Z,101454.47
2023-05-05T04:50:21.997Z,101449.94
2023-05-05T04:52:50.298Z,101452.63
2023-05-05T04:55:19.944Z,101445.56
2023-05-05T04:57:47.239Z,101448.25
2023-05-05T05:00:14.780Z,101450.94
2023-05-05T05:02:42.030Z,101461.69
2023-05-05T05:05:10.225Z,101461.69
2023-05-05T05:07:37.821Z,101464.38
2023-05-05T05:10:06.140Z,101474.25
2023-05-05T05:12:33.617Z,101467.91
2023-05-05T05:15:00.949Z,101469.75
2023-05-05T05:17:30.067Z,101475.16
2023-05-05T05:20:01.319Z,101473.41
2023-05-05T05:22:31.087Z,101483.22
2023-05-05T05:24:59.112Z,101477.84
2023-05-05T05:27:26.402Z,101476.09
2023-05-05T05:29:55.096Z,101485.00
2023-05-05T05:32:22.425Z,101482.31
2023-05-05T05:34:50.085Z,101476.09
2023-05-05T05:37:17.756Z,101484.16
2023-05-05T05:39:51.485Z,101484.31
2023-05-05T05:42:19.868Z,101480.63
2023-05-05T05:44:47.103Z,101483.31
2023-05-05T05:47:14.546Z,101483.31
2023-05-05T05:49:42.135Z,101479.78
2023-05-05T05:52:09.555Z,101480.63
2023-05-05T05:54:37.228Z,101482.47
2023-05-05T05:57:04.791Z,101486.00
2023-05-05T05:59:32.275Z,101486.09
2023-05-05T06:01:59.723Z,101484.31
2023-05-05T06:04:27.063Z,101487.84
2023-05-05T06:06:56.179Z,101495.06
2023-05-05T06:09:23.535Z,101495.06
2023-05-05T06:11:51.497Z,101492.38
2023-05-05T06:14:20.016Z,101495.91
2023-05-05T06:16:47.705Z,101491.50
2023-05-05T06:19:21.526Z,101491.38
2023-05-05T06:21:49.344Z,101498.59
2023-05-05T06:24:16.713Z,101491.38
2023-05-05T06:26:44.115Z,101495.78
2023-05-05T06:29:12.406Z,101493.09
2023-05-05T06:31:39.801Z,101496.66
2023-05-05T06:34:07.189Z,101493.97
2023-05-05T06:36:34.571Z,101493.88
2023-05-05T06:39:01.844Z,101495.44
2023-05-05T06:41:29.126Z,101494.44
2023-05-05T06:43:56.316Z,101498.03
2023-05-05T06:46:23.561Z,101495.31
2023-05-05T06:48:50.843Z,101487.25
2023-05-05T06:51:18.168Z,101498.75
2023-05-05T06:53:45.404Z,101506.81
2023-05-05T06:56:12.671Z,101504.88
2023-05-05T06:58:39.996Z,101506.66
2023-05-05T07:01:07.755Z,101506.56
2023-05-05T07:03:35.114Z,101497.66
2023-05-05T07:06:02.368Z,101494.94
2023-05-05T07:08:29.637Z,101498.59
2023-05-05T07:10:56.925Z,101498.97
2023-05-05T07:13:24.211Z,101501.06
2023-05-05T07:15:51.535Z,101503.97
2023-05-05T07:18:20.445Z,101505.06
2023-05-05T07:20:47.958Z,101507.91
2023-05-05T07:23:15.264Z,101505.31
2023-05-05T07:25:42.594Z,101503.59
2023-05-05T07:28:10.812Z,101506.28
2023-05-05T07:30:38.123Z,101503.59
2023-05-05T07:33:05.529Z,101502.63
2023-05-05T07:35:32.771Z,101511.28
2023-05-05T07:38:00.063Z,101504.63
2023-05-05T07:40:27.535Z,101509.72
2023-05-05T07:42:54.817Z,101512.06
2023-05-05T07:45:22.078Z,101509.13
2023-05-05T07:47:49.370Z,101497.28
2023-05-05T07:50:17.074Z,101501.81
2023-05-05T07:52:50.078Z,101498.13
2023-05-05T07:55:23.536Z,101490.91
2023-05-05T07:57:50.875Z,101489.81
2023-05-05T08:00:19.511Z,101492.22
2023-05-05T08:02:47.939Z,101492.97
2023-05-05T08:05:15.463Z,101494.56
2023-05-05T08:07:42.794Z,101488.19
2023-05-05T08:10:11.392Z,101491.59
2023-05-05T08:12:39.506Z,101491.38
2023-05-05T08:15:07.664Z,101496.50
2023-05-05T08:17:46.827Z,101498.19
2023-05-05T08:20:14.839Z,101492.69
2023-05-05T08:22:42.995Z,101490.00
2023-05-05T08:25:13.279Z,101503.34
2023-05-05T08:27:42.059Z,101497.81
2023-05-05T08:30:10.460Z,101501.38
2023-05-05T08:32:38.594Z,101498.56
2023-05-05T08:35:07.249Z,101494.88
2023-05-05T08:37:35.082Z,101494.88
2023-05-05T08:40:02.371Z,101494.75
2023-05-05T08:42:38.142Z,101486.56
2023-05-05T08:45:08.340Z,101490.09
2023-05-05T08:47:37.033Z,101487.16
2023-05-05T08:50:06.052Z,101486.31
2023-05-05T08:52:40.722Z,101485.44
2023-05-05T08:55:35.474Z,101479.94
2023-05-05T08:58:05.813Z,101478.25
2023-05-05T09:00:33.762Z,101475.41
2023-05-05T09:03:02.130Z,101470.88
2023-05-05T09:05:29.457Z,101465.34
2023-05-05T09:07:56.840Z,101468.78
2023-05-05T09:10:25.833Z,101468.78
2023-05-05T09:12:53.589Z,101470.50
2023-05-05T09:15:21.085Z,101462.41
2023-05-05T09:17:48.706Z,101456.94
2023-05-05T09:20:16.217Z,101463.25
2023-05-05T09:22:47.896Z,101461.44
2023-05-05T09:25:17.147Z,101455.09
2023-05-05T09:27:46.437Z,101456.94
2023-05-05T09:30:23.225Z,101454.22
2023-05-05T09:32:52.839Z,101456.03
2023-05-05T09:35:21.499Z,101455.94
2023-05-05T09:37:48.835Z,101447.97
2023-05-05T09:40:18.037Z,101444.31
2023-05-05T09:42:45.757Z,101444.31
2023-05-05T09:45:19.251Z,101445.03
2023-05-05T09:47:47.682Z,101447.72
2023-05-05T09:50:18.671Z,101448.47
2023-05-05T09:53:01.036Z,101442.22
2023-05-05T09:55:29.264Z,101438.66
2023-05-05T09:57:56.957Z,101450.16
2023-05-05T10:00:38.559Z,101447.22
2023-05-05T10:03:05.870Z,101439.75
2023-05-05T10:05:33.449Z,101428.97
2023-05-05T10:08:13.508Z,101431.66
2023-05-05T10:10:49.853Z,101427.25
2023-05-05T10:13:20.654Z,101426.38
2023-05-05T10:15:51.443Z,101419.31
2023-05-05T10:18:27.105Z,101422.84
2023-05-05T10:21:03.283Z,101413.19
2023-05-05T10:23:47.355Z,101413.19
2023-05-05T10:26:15.550Z,101413.19
2023-05-05T10:28:51.035Z,101415.88
2023-05-05T10:31:26.256Z,101416.75
2023-05-05T10:33:59.546Z,101412.47
2023-05-05T10:36:28.331Z,101403.53
2023-05-05T10:38:59.626Z,101408.94
2023-05-05T10:41:27.233Z,101409.78
2023-05-05T10:43:59.352Z,101405.25
2023-05-05T10:46:28.846Z,101409.78
2023-05-05T10:49:01.787Z,101407.09
2023-05-05T10:51:41.016Z,101396.16
2023-05-05T10:54:11.000Z,101388.00
2023-05-05T10:56:41.222Z,101393.09
2023-05-05T10:59:38.250Z,101392.84
2023-05-05T11:02:21.419Z,101379.50
2023-05-05T11:05:07.416Z,101381.34
2023-05-05T11:07:35.133Z,101367.03
2023-05-05T11:10:04.939Z,101370.69
2023-05-05T11:12:34.635Z,101359.22
2023-05-05T11:15:28.062Z,101361.16
2023-05-05T11:17:57.187Z,101360.31
2023-05-05T11:20:36.956Z,101363.00
2023-05-05T11:23:04.400Z,101353.09
2023-05-05T11:25:43.310Z,101359.47
2023-05-05T11:28:12.752Z,101354.94
2023-05-05T11:30:55.369Z,101353.94
2023-05-05T11:33:30.646Z,101343.16
2023-05-05T11:36:05.068Z,101344.06
2023-05-05T11:38:36.509Z,101347.59
2023-05-05T11:41:18.900Z,101339.53
2023-05-05T11:43:46.268Z,101341.22
2023-05-05T11:46:17.039Z,101337.53
2023-05-05T11:48:48.561Z,101337.53
2023-05-05T11:51:16.971Z,101330.44
2023-05-05T11:53:46.079Z,101328.59
2023-05-05T11:56:19.087Z,101330.44
2023-05-05T11:58:47.127Z,101324.22
2023-05-05T12:01:14.776Z,101325.06
2023-05-05T12:03:43.551Z,101326.06
2023-05-05T12:06:11.113Z,101328.59
2023-05-05T12:08:39.660Z,101325.91
2023-05-05T12:11:08.393Z,101318.69
2023-05-05T12:13:35.787Z,101314.16
2023-05-05T12:16:14.282Z,101306.06
2023-05-05T12:18:42.501Z,101313.31
2023-05-05T12:21:27.903Z,101308.91
2023-05-05T12:23:55.206Z,101313.31
2023-05-05T12:26:30.717Z,101314.28
2023-05-05T12:28:59.610Z,101302.69
2023-05-05T12:31:36.893Z,101298.13
2023-05-05T12:34:05.390Z,101298.00
2023-05-05T12:36:34.028Z,101293.47
2023-05-05T12:39:01.735Z,101290.75
2023-05-05T12:41:29.034Z,101293.47
2023-05-05T12:43:57.496Z,101285.38
2023-05-05T12:46:25.792Z,101287.13
2023-05-05T12:49:04.965Z,101282.69
2023-05-05T12:51:33.732Z,101280.00
2023-05-05T12:54:11.584Z,101280.00
2023-05-05T12:56:44.174Z,101283.56
2023-05-05T12:59:32.548Z,101276.34
2023-05-05T13:02:01.563Z,101267.41
2023-05-05T13:04:29.223Z,101266.41
2023-05-05T13:07:10.688Z,101270.81
2023-05-05T13:09:38.481Z,101261.88
2023-05-05T13:12:08.249Z,101261.88
2023-05-05T13:14:36.511Z,101260.03
2023-05-05T13:17:03.978Z,101253.66
2023-05-05T13:19:32.496Z,101251.81
2023-05-05T13:21:59.892Z,101242.91
2023-05-05T13:24:38.588Z,101237.50
2023-05-05T13:27:09.971Z,101228.47
2023-05-05T13:29:37.355Z,101229.44
2023-05-05T13:32:04.929Z,101223.19
2023-05-05T13:34:32.283Z,101220.50
2023-05-05T13:36:59.617Z,101209.72
2023-05-05T13:39:26.852Z,101216.81
2023-05-05T13:41:54.124Z,101220.50
2023-05-05T13:44:21.981Z,101215.97
2023-05-05T13:46:49.332Z,101210.59
2023-05-05T13:49:16.985Z,101210.59
2023-05-05T13:51:45.156Z,101203.34
2023-05-05T13:54:12.573Z,101202.50
2023-05-05T13:56:39.954Z,101206.03
2023-05-05T13:59:07.339Z,101208.75
2023-05-05T14:01:34.886Z,101196.28
2023-05-05T14:04:05.115Z,101200.66
2023-05-05T14:06:33.681Z,101197.13
2023-05-05T14:09:01.476Z,101194.44
2023-05-05T14:11:28.737Z,101187.19
2023-05-05T14:13:56.064Z,101190.78
2023-05-05T14:16:23.307Z,101183.66
2023-05-05T14:18:50.624Z,101173.72
2023-05-05T14:21:17.888Z,101179.13
2023-05-05T14:23:45.163Z,101178.16
2023-05-05T14:26:12.517Z,101172.78
2023-05-05T14:28:39.741Z,101173.72
2023-05-05T14:31:07.007Z,101173.72
2023-05-05T14:33:34.399Z,101173.72
2023-05-05T14:36:01.685Z,101180.84
2023-05-05T14:38:28.974Z,101176.44
2023-05-05T14:40:56.223Z,101169.22
2023-05-05T14:43:23.588Z,101180.69
2023-05-05T14:45:52.348Z,101174.47
2023-05-05T14:48:22.384Z,101174.47
2023-05-05T14:50:49.955Z,101167.38
2023-05-05T14:53:19.037Z,101174.47
2023-05-05T14:55:46.327Z,101176.31
2023-05-05T14:58:13.565Z,101164.69
2023-05-05T15:00:40.808Z,101175.47
2023-05-05T15:03:08.255Z,101176.16
2023-05-05T15:05:35.622Z,101172.63
2023-05-05T15:08:02.840Z,101172.63
2023-05-05T15:10:30.105Z,101184.25
2023-05-05T15:12:57.456Z,101173.47
2023-05-05T15:15:24.719Z,101174.31
2023-05-05T15:17:52.458Z,101177.00
2023-05-05T15:20:19.757Z,101169.78
2023-05-05T15:22:49.006Z,101161.69
2023-05-05T15:25:18.783Z,101161.69
2023-05-05T15:27:46.417Z,101159.88
2023-05-05T15:30:14.171Z,101154.50
2023-05-05T15:32:41.996Z,101158.16
2023-05-05T15:35:09.811Z,101153.63
2023-05-05T15:37:37.917Z,101152.78
2023-05-05T15:40:08.406Z,101154.63
2023-05-05T15:42:35.787Z,101149.22
2023-05-05T15:45:04.013Z,101153.78
2023-05-05T15:47:31.328Z,101155.63
2023-05-05T15:49:58.669Z,101151.94
2023-05-05T15:52:25.923Z,101154.63
2023-05-05T15:54:53.202Z,101147.53
2023-05-05T15:57:20.600Z,101135.91
2023-05-05T15:59:52.264Z,101142.16
2023-05-05T16:02:21.033Z,101142.16
2023-05-05T16:04:48.282Z,101143.00
2023-05-05T16:07:15.820Z,101137.63
2023-05-05T16:09:44.317Z,101139.31
2023-05-05T16:12:11.700Z,101142.84
2023-05-05T16:14:38.970Z,101149.97
2023-05-05T16:17:07.520Z,101138.34
2023-05-05T16:19:34.930Z,101137.47
2023-05-05T16:22:02.745Z,101139.19
2023-05-05T16:24:30.069Z,101139.19
2023-05-05T16:26:57.282Z,101133.81
2023-05-05T16:29:24.507Z,101131.97
2023-05-05T16:31:51.819Z,101129.28
2023-05-05T16:34:19.136Z,101128.28
2023-05-05T16:36:46.509Z,101129.28
2023-05-05T16:39:13.846Z,101127.44
2023-05-05T16:41:41.393Z,101123.72
2023-05-05T16:44:08.705Z,101112.97
2023-05-05T16:46:37.725Z,101118.22
2023-05-05T16:49:05.167Z,101109.19
2023-05-05T16:51:32.399Z,101111.72
2023-05-05T16:53:59.706Z,101120.81
2023-05-05T16:56:27.043Z,101111.72
2023-05-05T16:58:54.382Z,101108.19
2023-05-05T17:03:48.614Z,101104.38
2023-05-05T17:06:15.847Z,101095.31
2023-05-05T17:08:43.139Z,101098.00
2023-05-05T17:11:11.858Z,101097.84
2023-05-05T17:13:39.424Z,101101.25
2023-05-05T17:16:07.265Z,101102.13
2023-05-05T17:18:34.603Z,101100.41
2023-05-05T17:21:01.872Z,101102.69
2023-05-05T17:23:29.094Z,101107.06
2023-05-05T17:25:58.751Z,101105.66
2023-05-05T17:28:28.646Z,101097.31
2023-05-05T17:30:59.547Z,101096.47
2023-05-05T17:33:27.231Z,101097.19
2023-05-05T17:35:54.792Z,101098.88
2023-05-05T17:38:24.839Z,101097.03
2023-05-05T17:40:52.093Z,101090.81
2023-05-05T17:43:21.910Z,101095.19
2023-05-05T17:45:50.794Z,101099.56
2023-05-05T17:48:18.338Z,101089.09
2023-05-05T17:50:48.070Z,101089.94
2023-05-05T17:53:16.083Z,101091.81
2023-05-05T17:55:47.173Z,101086.53
2023-05-05T17:58:14.373Z,101086.53
2023-05-05T18:00:41.653Z,101086.81
2023-05-05T18:03:09.063Z,101088.81
2023-05-05T18:05:36.403Z,101099.72
2023-05-05T18:08:03.824Z,101092.75
2023-05-05T18:10:31.444Z,101100.13
2023-05-05T18:12:58.741Z,101100.25
2023-05-05T18:15:26.497Z,101096.88
2023-05-05T18:17:53.920Z,101104.97
2023-05-05T18:20:21.417Z,101098.69
2023-05-05T18:22:49.011Z,101101.53
2023-05-05T18:25:16.636Z,101099.69
2023-05-05T18:27:44.431Z,101098.00
2023-05-05T18:30:12.068Z,101095.31
2023-05-05T18:32:39.398Z,101094.47
2023-05-05T18:35:07.416Z,101099.84
2023-05-05T18:37:34.951Z,101093.59
2023-05-05T18:40:02.310Z,101093.59
2023-05-05T18:42:29.641Z,101097.16
2023-05-05T18:44:56.909Z,101098.00
2023-05-05T18:47:24.208Z,101096.31
2023-05-05T18:49:51.702Z,101097.16
2023-05-05T18:52:18.900Z,101107.06
2023-05-05T18:54:46.205Z,101114.16
2023-05-05T18:57:13.440Z,101113.31
2023-05-05T18:59:40.741Z,101123.09
2023-05-05T19:02:07.929Z,101121.38
2023-05-05T19:04:38.183Z,101117.69
2023-05-05T19:07:06.038Z,101121.22
2023-05-05T19:09:33.466Z,101120.25
2023-05-05T19:12:04.573Z,101129.31
2023-05-05T19:14:31.952Z,101128.47
2023-05-05T19:16:59.596Z,101130.16
2023-05-05T19:19:27.130Z,101128.31
2023-05-05T19:21:54.786Z,101130.03
2023-05-05T19:24:22.152Z,101131.75
2023-05-05T19:26:49.396Z,101138.81
2023-05-05T19:29:17.694Z,101129.91
2023-05-05T19:31:44.948Z,101132.59
2023-05-05T19:34:12.232Z,101138.81
2023-05-05T19:36:39.582Z,101135.13
2023-05-05T19:39:06.894Z,101131.47
2023-05-05T19:41:35.469Z,101127.06
2023-05-05T19:44:03.087Z,101127.06
2023-05-05T19:46:30.599Z,101126.19
2023-05-05T19:48:57.940Z,101128.91
2023-05-05T19:51:25.342Z,101130.75
2023-05-05T19:53:52.646Z,101129.91
2023-05-05T19:56:19.927Z,101129.91
2023-05-05T19:58:53.794Z,101130.75
2023-05-05T20:01:21.454Z,101129.03
2023-05-05T20:03:49.045Z,101128.19
2023-05-05T20:06:16.542Z,101129.03
2023-05-05T20:08:43.789Z,101132.59
2023-05-05T20:11:11.094Z,101135.28
2023-05-05T20:13:40.953Z,101136.13
2023-05-05T20:16:08.342Z,101135.28
2023-05-05T20:18:35.688Z,101141.50
2023-05-05T20:21:03.624Z,101136.13
2023-05-05T20:23:31.069Z,101133.44
2023-05-05T20:25:58.386Z,101136.97
2023-05-05T20:28:25.639Z,101133.44
2023-05-05T20:30:52.860Z,101133.44
2023-05-05T20:33:20.134Z,101132.59
2023-05-05T20:35:47.400Z,101136.13
2023-05-05T20:38:14.755Z,101137.81
2023-05-05T20:40:42.125Z,101140.66
2023-05-05T20:43:09.373Z,101134.28
2023-05-05T20:45:37.232Z,101134.28
2023-05-05T20:48:07.250Z,101144.22
2023-05-05T20:50:37.452Z,101136.97
2023-05-05T20:53:07.108Z,101136.97
2023-05-05T20:55:34.377Z,101133.44
2023-05-05T20:58:01.706Z,101131.47
2023-05-05T21:00:28.975Z,101126.19
2023-05-05T21:02:57.173Z,101131.59
2023-05-05T21:05:24.625Z,101132.44
2023-05-05T21:07:53.932Z,101135.00
2023-05-05T21:10:21.332Z,101130.47
2023-05-05T21:12:48.766Z,101129.47
2023-05-05T21:15:16.856Z,101122.41
2023-05-05T21:17:44.456Z,101123.25
2023-05-05T21:20:12.520Z,101127.78
2023-05-05T21:22:40.117Z,101125.94
2023-05-05T21:25:13.066Z,101130.47
2023-05-05T21:27:40.591Z,101125.09
2023-05-05T21:30:10.828Z,101120.53
2023-05-05T21:32:39.556Z,101124.09
2023-05-05T21:35:08.727Z,101125.94
2023-05-05T21:37:39.919Z,101120.53
2023-05-05T21:40:13.943Z,101121.41
2023-05-05T21:42:42.568Z,101121.41
2023-05-05T21:45:12.926Z,101120.53
2023-05-05T21:47:40.249Z,101125.94
2023-05-05T21:50:08.339Z,101126.78
2023-05-05T21:52:35.946Z,101122.41
2023-05-05T21:55:03.791Z,101123.25
2023-05-05T21:57:31.053Z,101119.69
2023-05-05T21:59:58.305Z,101114.31
2023-05-05T22:02:25.592Z,101116.16
2023-05-05T22:04:53.128Z,101114.31
2023-05-05T22:07:20.492Z,101108.94
2023-05-05T22:09:47.889Z,101114.31
2023-05-05T22:12:15.125Z,101111.63
2023-05-05T22:14:42.442Z,101107.22
2023-05-05T22:17:09.841Z,101112.63
2023-05-05T22:19:37.071Z,101116.16
2023-05-05T22:22:05.662Z,101114.31
2023-05-05T22:24:32.921Z,101118.84
2023-05-05T22:27:00.322Z,101119.69
2023-05-05T22:29:27.624Z,101107.22
2023-05-05T22:31:54.999Z,101119.69
2023-05-05T22:34:22.197Z,101119.69
2023-05-05T22:36:49.898Z,101123.38
2023-05-05T22:39:18.595Z,101117.00
2023-05-05T22:41:46.624Z,101114.31
2023-05-05T22:44:14.006Z,101107.22
2023-05-05T22:46:42.148Z,101117.16
2023-05-05T22:49:09.548Z,101115.44
2023-05-05T22:51:36.789Z,101109.19
2023-05-05T22:54:04.333Z,101109.06
2023-05-05T22:56:31.556Z,101109.19
2023-05-05T22:58:58.761Z,101114.59
2023-05-05T23:01:26.242Z,101114.59
2023-05-05T23:03:53.737Z,101107.50
2023-05-05T23:06:21.028Z,101111.19
2023-05-05T23:08:49.275Z,101108.50
2023-05-05T23:11:16.569Z,101111.19
2023-05-05T23:13:43.874Z,101109.47
2023-05-05T23:16:11.213Z,101109.47
2023-05-05T23:18:38.833Z,101115.84
2023-05-05T23:21:06.095Z,101105.06
2023-05-05T23:23:33.330Z,101102.38
2023-05-05T23:26:00.851Z,101106.91
2023-05-05T23:28:28.111Z,101105.06
2023-05-05T23:30:55.607Z,101108.78
2023-05-05T23:33:22.871Z,101096.31
2023-05-05T23:35:50.305Z,101094.47
2023-05-05T23:38:17.590Z,101099.84
2023-05-05T23:40:44.864Z,101099.84
2023-05-05T23:43:12.118Z,101090.91
2023-05-05T23:45:39.379Z,101082.84
2023-05-05T23:48:06.791Z,101083.81
2023-05-05T23:50:34.122Z,101081.09
2023-05-05T23:53:01.473Z,101075.72
2023-05-05T23:57:55.736Z,101075.72
